Main page
METAR-TAF:

METAR-TAF

Airports :

Bhavnagar Airport

Bhavnagar, India

latitude: 21-45-08N, longitude: 72-11-07E, elevation: 6 m

Current weather observation

The report was made 48 minutes ago, at 13:00 UTC
Wind 10 kt from the South
Temperature 39°C
Humidity 30%
Pressure 1006 hPa
Visibility: 6000 m

METAR: VABV 201300Z 18010KT 6000 NSC 39/18 Q1006

Time: 19:18 (13:48 UTC)

Forecast

The report was made 5 hours and 48 minutes ago, at 08:00 UTC
Forecast valid from 20 at 09 UTC to 20 at 18 UTC
Wind 10 kt from the North
Visibility: 6000 m
Scattered clouds at a height of 2000 ft
Becoming
from 20 at 13 UTC to 20 at 15 UTC
Wind 5 kt from the Northwest
Visibility: 4000 m
smoke

TAF: VABV 200800Z 2009/2018 36010KT 6000 SCT020 BECMG 2013/2015 32005KT 4000 FU NSC

Weather observations and forecasts of more than 4000 airports (METAR and TAF reports).

The available stations are represented by yellow and red dots on the map.

Hover mouse over dot to see the name of the station.

Then click to see weather observations and forecasts.

To change the map : click on the green buttons with a black cross to zoom in, on the green button with a dash to zoom out, or on the green arrows for adjacent maps.


METAR-TAF: